Time;durP1;ratioP1;P1;durP2;ratioP2;P2;SDS_P1;SDS_P2;PMS_P1;PMS_P2;Temp;Humidity;BMP_temperature;BMP_pressure;BME280_temperature;BME280_humidity;BME280_pressure;Samples;Min_cycle;Max_cycle;Signal;HPM_P1;HPM_P2
2022/07/04 00:00:57;;;;;;;2.05;0.30;;;15.50;99.90;;;;;;5003688;28;20261;-45
2022/07/04 00:03:22;;;;;;;2.38;0.50;;;15.50;99.90;;;;;;5004800;28;20041;-44
2022/07/04 00:05:48;;;;;;;0.98;0.20;;;15.50;99.90;;;;;;5032280;28;20132;-43
2022/07/04 00:08:14;;;;;;;3.85;0.57;;;15.40;99.90;;;;;;4999214;28;20038;-45
2022/07/04 00:10:39;;;;;;;1.45;0.40;;;15.40;99.90;;;;;;5018674;28;20045;-45
2022/07/04 00:13:05;;;;;;;2.25;0.30;;;15.40;99.90;;;;;;5002947;28;20053;-44
2022/07/04 00:15:31;;;;;;;3.20;0.40;;;15.40;99.90;;;;;;4998638;28;20333;-44
2022/07/04 00:17:57;;;;;;;3.17;0.47;;;15.40;99.90;;;;;;5032941;28;20046;-44
2022/07/04 00:20:22;;;;;;;2.55;0.40;;;15.30;99.90;;;;;;5003091;28;20560;-45
2022/07/04 00:22:48;;;;;;;2.50;0.30;;;15.30;99.90;;;;;;4999804;28;20458;-44
2022/07/04 00:25:14;;;;;;;3.70;0.50;;;15.30;99.90;;;;;;5000073;28;20037;-46
2022/07/04 00:27:40;;;;;;;1.65;0.30;;;15.30;99.90;;;;;;5015368;28;20284;-43
2022/07/04 00:30:06;;;;;;;2.58;0.20;;;15.30;99.90;;;;;;5031086;28;20104;-45
2022/07/04 00:32:31;;;;;;;2.67;0.65;;;15.30;99.90;;;;;;4998637;28;20316;-44
2022/07/04 00:34:57;;;;;;;2.95;0.35;;;15.30;99.90;;;;;;5030906;28;20137;-43
2022/07/04 00:37:23;;;;;;;2.47;0.43;;;15.30;99.90;;;;;;5031507;28;20046;-43
2022/07/04 00:39:49;;;;;;;2.47;0.40;;;15.20;99.90;;;;;;5000809;28;20088;-44
2022/07/04 00:42:14;;;;;;;2.42;0.30;;;15.20;99.90;;;;;;4998607;28;20059;-45
2022/07/04 00:44:40;;;;;;;1.83;0.43;;;15.20;99.90;;;;;;4999926;28;20706;-44
2022/07/04 00:47:07;;;;;;;4.00;0.50;;;15.20;99.90;;;;;;5030395;28;20301;-43
2022/07/04 00:49:33;;;;;;;2.33;0.43;;;15.20;99.90;;;;;;5001114;28;20046;-43
2022/07/04 00:52:00;;;;;;;1.95;0.40;;;15.10;99.90;;;;;;5000025;28;20141;-44
2022/07/04 00:54:29;;;;;;;2.65;0.50;;;15.10;99.90;;;;;;5001167;28;20480;-43
2022/07/04 00:56:56;;;;;;;2.22;0.40;;;15.10;99.90;;;;;;4997289;28;20535;-44
2022/07/04 00:59:22;;;;;;;3.67;0.47;;;15.00;99.90;;;;;;5010811;28;20044;-44
2022/07/04 01:01:48;;;;;;;3.28;0.40;;;15.10;99.90;;;;;;4995779;28;20704;-45
2022/07/04 01:04:14;;;;;;;1.67;0.38;;;15.10;99.90;;;;;;5000739;28;20233;-45
2022/07/04 01:06:40;;;;;;;2.63;0.68;;;15.10;99.90;;;;;;4998161;28;20049;-43
2022/07/04 01:09:06;;;;;;;1.10;0.30;;;15.10;99.90;;;;;;5000367;28;20037;-45
2022/07/04 01:11:31;;;;;;;4.13;0.40;;;15.00;99.90;;;;;;5000491;28;20021;-44
2022/07/04 01:13:58;;;;;;;4.25;0.40;;;15.00;99.90;;;;;;4998550;28;20634;-43
2022/07/04 01:16:27;;;;;;;3.22;0.40;;;15.00;99.90;;;;;;4999307;28;20507;-44
2022/07/04 01:18:54;;;;;;;3.65;0.52;;;15.00;99.90;;;;;;4999091;28;20443;-44
2022/07/04 01:21:20;;;;;;;2.47;0.32;;;15.00;99.90;;;;;;5000866;28;20399;-43
2022/07/04 01:23:46;;;;;;;1.40;0.50;;;14.90;99.90;;;;;;4998177;28;20038;-43
2022/07/04 01:26:12;;;;;;;2.42;0.40;;;14.90;99.90;;;;;;5029787;28;20056;-43
2022/07/04 01:28:38;;;;;;;1.90;0.45;;;14.90;99.90;;;;;;4996374;28;20133;-45
2022/07/04 01:31:05;;;;;;;1.95;0.40;;;14.90;99.90;;;;;;4996265;28;20046;-44
2022/07/04 01:33:31;;;;;;;2.10;0.50;;;14.90;99.90;;;;;;4996129;28;20057;-43
2022/07/04 01:35:56;;;;;;;3.58;0.60;;;14.90;99.90;;;;;;4997537;28;20479;-44
2022/07/04 01:38:22;;;;;;;4.53;0.65;;;14.80;99.90;;;;;;5028160;28;20191;-43
2022/07/04 01:40:48;;;;;;;1.55;0.30;;;14.80;99.90;;;;;;4999050;28;20037;-44
2022/07/04 01:43:14;;;;;;;5.05;0.50;;;14.80;99.90;;;;;;5000474;28;20231;-45
2022/07/04 01:45:39;;;;;;;4.32;0.60;;;14.80;99.90;;;;;;4998380;28;20080;-43
2022/07/04 01:48:11;;;;;;;3.70;0.40;;;14.80;99.90;;;;;;5000351;28;20223;-43
2022/07/04 01:50:38;;;;;;;1.15;0.40;;;14.80;99.90;;;;;;4998862;28;20040;-44
2022/07/04 01:53:04;;;;;;;3.33;0.52;;;14.80;99.90;;;;;;4999139;28;20253;-44
2022/07/04 01:55:31;;;;;;;1.23;0.30;;;14.80;99.90;;;;;;5028284;28;20062;-44
2022/07/04 01:57:57;;;;;;;2.28;0.50;;;14.80;99.90;;;;;;4998689;28;20054;-44
2022/07/04 02:03:08;;;;;;;2.65;0.60;;;14.70;99.90;;;;;;4998210;28;20401;-43
2022/07/04 02:05:36;;;;;;;2.08;0.50;;;14.70;99.90;;;;;;4999233;28;20038;-44
2022/07/04 02:08:03;;;;;;;2.60;0.40;;;14.70;99.90;;;;;;4998362;28;20100;-44
2022/07/04 02:10:29;;;;;;;2.42;0.50;;;14.70;99.90;;;;;;5009336;28;20076;-43
2022/07/04 02:13:03;;;;;;;1.10;0.32;;;14.70;99.90;;;;;;5000653;28;20372;-43
2022/07/04 02:15:35;;;;;;;1.83;0.63;;;14.60;99.90;;;;;;4979039;28;20570;-45
2022/07/04 02:18:01;;;;;;;2.65;0.55;;;14.60;99.90;;;;;;4998873;28;20302;-45
2022/07/04 02:20:28;;;;;;;3.92;0.75;;;14.60;99.90;;;;;;5001016;28;20563;-43
2022/07/04 02:22:54;;;;;;;2.67;0.47;;;14.60;99.90;;;;;;4998151;28;20034;-45
2022/07/04 02:25:20;;;;;;;2.58;0.43;;;14.60;99.90;;;;;;4999159;28;20652;-44
2022/07/04 02:27:46;;;;;;;1.92;0.40;;;14.50;99.90;;;;;;5030201;28;20073;-43
2022/07/04 02:30:12;;;;;;;1.75;0.50;;;14.50;99.90;;;;;;5029377;28;20059;-44
2022/07/04 02:32:38;;;;;;;3.28;0.50;;;14.50;99.90;;;;;;5009865;28;20160;-44
2022/07/04 02:35:05;;;;;;;2.72;0.38;;;14.50;99.90;;;;;;4998795;28;20045;-44
2022/07/04 02:37:31;;;;;;;2.70;0.47;;;14.50;99.90;;;;;;4998481;28;20044;-43
2022/07/04 02:39:56;;;;;;;3.22;0.88;;;14.40;99.90;;;;;;5001057;28;20120;-43
2022/07/04 02:42:22;;;;;;;2.58;0.40;;;14.50;99.90;;;;;;5001674;28;20049;-44
2022/07/04 02:44:48;;;;;;;1.50;0.40;;;14.50;99.90;;;;;;4996938;28;20401;-43
2022/07/04 02:47:14;;;;;;;3.40;0.77;;;14.40;99.90;;;;;;5013343;28;20499;-46
2022/07/04 02:49:40;;;;;;;1.55;0.50;;;14.40;99.90;;;;;;5012811;28;20508;-43
2022/07/04 02:52:06;;;;;;;1.77;0.43;;;14.40;99.90;;;;;;5001616;28;20045;-43
2022/07/04 02:54:31;;;;;;;2.03;0.30;;;14.40;99.90;;;;;;5003874;28;20132;-45
2022/07/04 02:56:57;;;;;;;2.58;0.52;;;14.40;99.90;;;;;;5015996;28;20136;-44
2022/07/04 02:59:23;;;;;;;1.25;0.30;;;14.40;99.90;;;;;;4979253;28;20045;-43
2022/07/04 03:01:48;;;;;;;2.95;0.40;;;14.40;99.90;;;;;;5000453;28;20266;-44
2022/07/04 03:04:14;;;;;;;2.97;0.73;;;14.40;99.90;;;;;;5001929;28;20034;-43
2022/07/04 03:06:40;;;;;;;2.53;0.40;;;14.40;99.90;;;;;;5002732;28;20042;-44
2022/07/04 03:09:06;;;;;;;2.53;0.47;;;14.30;99.90;;;;;;5002729;28;20459;-43
2022/07/04 03:11:32;;;;;;;3.08;0.40;;;14.40;99.90;;;;;;5002187;28;20447;-44
2022/07/04 03:13:58;;;;;;;2.50;0.35;;;14.30;99.90;;;;;;5003380;28;20029;-43
2022/07/04 03:16:24;;;;;;;1.73;0.47;;;14.30;99.90;;;;;;5029488;28;20068;-43
2022/07/04 03:18:49;;;;;;;7.32;0.80;;;14.30;99.90;;;;;;5016744;28;20529;-44
2022/07/04 03:21:15;;;;;;;1.58;0.40;;;14.30;99.90;;;;;;5030883;28;20049;-44
2022/07/04 03:23:41;;;;;;;2.45;0.40;;;14.30;99.90;;;;;;5002861;28;20410;-43
2022/07/04 03:26:06;;;;;;;1.60;0.50;;;14.30;99.90;;;;;;4983724;28;20073;-44
2022/07/04 03:28:32;;;;;;;1.58;0.40;;;14.20;99.90;;;;;;5015087;28;20709;-44
2022/07/04 03:30:58;;;;;;;1.92;0.55;;;14.30;99.90;;;;;;4999398;28;20080;-44
2022/07/04 03:33:24;;;;;;;2.05;0.60;;;14.20;99.90;;;;;;5000492;28;20049;-43
2022/07/04 03:35:50;;;;;;;2.67;0.47;;;14.20;99.90;;;;;;5000890;28;20061;-44
2022/07/04 03:38:16;;;;;;;1.80;0.30;;;14.20;99.90;;;;;;5003560;28;20042;-44
2022/07/04 03:40:41;;;;;;;1.88;0.50;;;14.20;99.90;;;;;;4985478;28;20408;-43
2022/07/04 03:43:07;;;;;;;1.95;0.43;;;14.20;99.90;;;;;;5001254;28;20186;-44
2022/07/04 03:45:33;;;;;;;1.77;0.45;;;14.20;99.90;;;;;;5035185;28;20110;-44
2022/07/04 03:48:02;;;;;;;1.88;0.40;;;14.20;99.90;;;;;;4999567;28;20049;-43
2022/07/04 03:50:27;;;;;;;2.20;0.50;;;14.20;99.90;;;;;;5000431;28;20065;-43
2022/07/04 03:52:53;;;;;;;1.55;0.50;;;14.20;99.90;;;;;;5000094;28;20138;-43
2022/07/04 03:55:19;;;;;;;3.13;0.60;;;14.20;99.90;;;;;;5014744;28;20057;-43
2022/07/04 03:57:44;;;;;;;2.05;0.63;;;14.20;99.90;;;;;;4982816;28;20079;-43
2022/07/04 04:00:11;;;;;;;2.13;0.40;;;14.20;99.90;;;;;;5001114;28;20748;-45
2022/07/04 04:02:37;;;;;;;3.15;0.80;;;14.20;99.90;;;;;;4968904;28;20049;-44
2022/07/04 04:07:48;;;;;;;1.70;0.60;;;14.20;99.90;;;;;;5000214;28;20048;-43
2022/07/04 04:10:14;;;;;;;1.42;0.47;;;14.20;99.90;;;;;;5004149;28;20403;-45
2022/07/04 04:12:40;;;;;;;2.65;0.73;;;14.20;99.90;;;;;;4999635;28;20281;-43
2022/07/04 04:15:06;;;;;;;1.98;0.60;;;14.20;99.90;;;;;;4985259;28;20132;-43
2022/07/04 04:17:32;;;;;;;2.28;0.70;;;14.30;99.90;;;;;;5002014;28;20042;-46
2022/07/04 04:19:57;;;;;;;3.30;0.50;;;14.30;99.90;;;;;;5003636;28;20038;-43
2022/07/04 04:22:23;;;;;;;3.20;0.82;;;14.20;99.90;;;;;;5000323;28;20038;-43
2022/07/04 04:24:48;;;;;;;2.40;0.40;;;14.30;99.90;;;;;;4998096;28;20364;-45
2022/07/04 04:27:14;;;;;;;2.47;0.70;;;14.30;99.90;;;;;;4998845;28;20038;-43
2022/07/04 04:29:40;;;;;;;2.17;0.40;;;14.30;99.90;;;;;;4999015;28;20099;-43
2022/07/04 04:32:06;;;;;;;2.83;0.80;;;14.40;99.90;;;;;;5000299;28;20048;-44
2022/07/04 04:34:33;;;;;;;3.08;0.75;;;14.30;99.90;;;;;;5001495;28;20033;-43
2022/07/04 04:36:59;;;;;;;1.80;0.30;;;14.40;99.90;;;;;;5001167;28;20052;-43
2022/07/04 04:39:25;;;;;;;2.58;0.60;;;14.40;99.90;;;;;;4995169;28;20041;-43
2022/07/04 04:41:50;;;;;;;2.42;0.40;;;14.40;99.90;;;;;;5000365;28;20442;-44
2022/07/04 04:44:16;;;;;;;2.47;0.60;;;14.50;99.90;;;;;;4999483;28;20041;-43
2022/07/04 04:46:42;;;;;;;2.78;0.75;;;14.50;99.90;;;;;;4999125;28;20100;-43
2022/07/04 04:49:07;;;;;;;2.03;0.63;;;14.50;99.90;;;;;;5000341;28;20053;-45
2022/07/04 04:51:33;;;;;;;3.33;0.50;;;14.60;99.90;;;;;;5030336;28;20049;-44
2022/07/04 04:53:59;;;;;;;2.85;0.60;;;14.60;99.90;;;;;;4982560;28;20049;-44
2022/07/04 04:56:25;;;;;;;1.95;0.50;;;14.60;99.90;;;;;;4995038;28;20046;-44
2022/07/04 04:58:50;;;;;;;1.05;0.30;;;14.70;99.90;;;;;;5033655;28;20051;-43
2022/07/04 05:01:16;;;;;;;1.60;0.43;;;14.70;99.90;;;;;;5000491;28;20046;-43
2022/07/04 05:03:42;;;;;;;4.40;0.77;;;14.70;99.90;;;;;;4996686;28;20041;-44
2022/07/04 05:06:08;;;;;;;1.75;0.50;;;14.70;99.90;;;;;;5000660;28;20135;-44
2022/07/04 05:08:33;;;;;;;3.20;1.00;;;14.80;99.90;;;;;;4979450;28;20034;-45
2022/07/04 05:10:59;;;;;;;1.75;0.60;;;14.80;99.90;;;;;;4998148;28;20332;-45
2022/07/04 05:13:25;;;;;;;3.80;0.68;;;14.90;99.90;;;;;;5000491;28;20245;-44
2022/07/04 05:15:51;;;;;;;4.60;0.52;;;14.90;99.90;;;;;;4997180;28;20046;-43
2022/07/04 05:18:17;;;;;;;4.05;0.98;;;14.90;99.90;;;;;;4996678;28;20037;-43
2022/07/04 05:20:42;;;;;;;3.95;0.70;;;15.00;99.90;;;;;;4996760;28;20420;-45
2022/07/04 05:23:08;;;;;;;3.03;0.50;;;15.00;99.90;;;;;;4981387;28;20092;-45
2022/07/04 05:25:34;;;;;;;5.22;0.70;;;15.10;99.90;;;;;;5012083;28;20072;-43
2022/07/04 05:27:59;;;;;;;4.38;0.80;;;15.30;99.90;;;;;;4998051;28;20045;-44
2022/07/04 05:30:25;;;;;;;5.45;0.85;;;15.80;99.90;;;;;;5000027;28;20238;-43
2022/07/04 05:32:51;;;;;;;1.40;0.40;;;16.60;99.90;;;;;;5018294;28;20455;-43
2022/07/04 05:35:17;;;;;;;2.42;0.50;;;17.20;99.90;;;;;;5001186;28;20053;-44
2022/07/04 05:37:43;;;;;;;2.28;0.40;;;17.40;99.90;;;;;;4982058;28;20561;-43
2022/07/04 05:40:11;;;;;;;2.15;0.40;;;17.40;99.90;;;;;;4978613;28;20048;-43
2022/07/04 05:42:37;;;;;;;3.22;0.60;;;17.40;99.90;;;;;;4981994;28;20076;-43
2022/07/04 05:45:03;;;;;;;4.07;0.55;;;17.50;99.90;;;;;;5029152;28;20061;-44
2022/07/04 05:47:29;;;;;;;1.25;0.38;;;17.60;99.90;;;;;;4998373;28;20536;-43
2022/07/04 05:49:55;;;;;;;2.50;0.40;;;17.60;99.90;;;;;;5015859;28;20056;-44
2022/07/04 05:52:20;;;;;;;3.60;0.50;;;17.60;99.90;;;;;;5000679;28;20038;-45
2022/07/04 05:54:46;;;;;;;2.17;0.50;;;17.60;99.90;;;;;;4999510;28;20984;-43
2022/07/04 05:57:12;;;;;;;2.75;0.40;;;17.60;99.90;;;;;;5001202;28;20104;-44
2022/07/04 05:59:37;;;;;;;3.03;0.52;;;17.60;99.90;;;;;;4994987;28;20053;-43
2022/07/04 06:02:03;;;;;;;2.10;0.55;;;17.60;99.90;;;;;;4998864;28;20041;-45
2022/07/04 06:04:29;;;;;;;2.40;0.60;;;17.60;99.90;;;;;;5000602;28;20478;-45
2022/07/04 06:06:55;;;;;;;2.35;0.50;;;17.50;99.90;;;;;;5000157;28;20120;-45
2022/07/04 06:09:20;;;;;;;3.55;0.50;;;17.50;99.90;;;;;;5000128;28;20038;-43
2022/07/04 06:11:46;;;;;;;3.42;0.50;;;17.50;99.90;;;;;;4997051;28;20488;-43
2022/07/04 06:14:12;;;;;;;3.75;0.60;;;17.50;99.90;;;;;;4998273;28;20209;-45
2022/07/04 06:16:38;;;;;;;2.45;0.60;;;17.50;99.90;;;;;;4998387;28;20093;-44
2022/07/04 06:19:03;;;;;;;3.60;0.68;;;17.50;99.90;;;;;;4999704;28;20045;-44
2022/07/04 06:21:29;;;;;;;2.60;0.45;;;17.50;99.90;;;;;;4997289;28;20395;-45
2022/07/04 06:23:57;;;;;;;1.70;0.40;;;17.50;99.90;;;;;;4995201;28;20046;-45
2022/07/04 06:26:23;;;;;;;3.42;0.50;;;17.50;99.90;;;;;;4999024;28;20486;-45
2022/07/04 06:28:48;;;;;;;3.45;0.60;;;17.60;99.90;;;;;;4997694;28;20372;-45
2022/07/04 06:31:14;;;;;;;5.65;0.38;;;17.60;99.90;;;;;;5013117;28;20487;-44
2022/07/04 06:36:24;;;;;;;2.03;0.40;;;17.70;99.90;;;;;;4995649;28;20084;-44
2022/07/04 06:38:50;;;;;;;4.30;0.40;;;17.70;99.90;;;;;;5030189;28;20128;-44
2022/07/04 06:41:16;;;;;;;1.77;0.38;;;17.80;99.90;;;;;;5022173;28;20049;-44
2022/07/04 06:43:41;;;;;;;2.83;0.45;;;17.90;99.90;;;;;;4998442;28;20033;-45
2022/07/04 06:46:07;;;;;;;3.03;0.40;;;17.90;99.90;;;;;;5032771;28;20420;-44
2022/07/04 06:48:34;;;;;;;3.35;0.50;;;18.00;99.90;;;;;;4999631;28;20119;-44
2022/07/04 06:51:00;;;;;;;2.95;0.50;;;18.10;99.90;;;;;;4999479;28;20050;-43
2022/07/04 06:53:25;;;;;;;3.70;0.47;;;18.20;99.90;;;;;;5014009;28;20045;-44
2022/07/04 06:55:51;;;;;;;3.85;0.50;;;18.20;99.90;;;;;;5030969;28;20049;-45
2022/07/04 06:58:17;;;;;;;2.22;0.32;;;18.30;99.90;;;;;;4998616;28;20045;-43
2022/07/04 07:00:43;;;;;;;3.10;0.50;;;18.40;99.90;;;;;;4998762;28;20693;-44
2022/07/04 07:03:10;;;;;;;2.53;0.40;;;18.40;99.90;;;;;;4983046;28;20041;-44
2022/07/04 07:05:36;;;;;;;2.00;0.40;;;18.50;99.90;;;;;;5031523;28;20073;-45
2022/07/04 07:08:05;;;;;;;3.25;0.50;;;18.60;99.90;;;;;;5000769;28;20188;-45
2022/07/04 07:10:32;;;;;;;2.58;0.47;;;18.60;99.90;;;;;;4997776;28;20045;-45
2022/07/04 07:12:59;;;;;;;3.80;0.50;;;18.70;99.90;;;;;;5030903;28;20045;-44
2022/07/04 07:15:25;;;;;;;2.72;0.50;;;18.80;99.90;;;;;;4998333;28;20215;-44
2022/07/04 07:17:50;;;;;;;4.53;0.50;;;18.80;99.90;;;;;;4984297;28;20566;-43
2022/07/04 07:20:16;;;;;;;3.90;0.80;;;18.90;99.90;;;;;;5009428;28;20546;-44
2022/07/04 07:22:43;;;;;;;3.17;0.40;;;19.00;99.90;;;;;;5010979;28;20133;-44
2022/07/04 07:25:10;;;;;;;4.63;0.50;;;19.10;99.90;;;;;;4997557;28;20125;-44
2022/07/04 07:27:36;;;;;;;4.85;0.55;;;19.20;99.90;;;;;;5001702;28;20048;-44
2022/07/04 07:30:03;;;;;;;3.03;0.50;;;19.30;99.90;;;;;;5003051;28;20447;-45
2022/07/04 07:32:29;;;;;;;2.70;0.52;;;19.40;99.90;;;;;;5018637;28;20037;-43
2022/07/04 07:34:55;;;;;;;4.25;0.50;;;19.40;99.90;;;;;;5003536;28;20107;-44
2022/07/04 07:37:21;;;;;;;2.70;0.50;;;19.50;99.90;;;;;;5002331;28;20037;-43
2022/07/04 07:39:48;;;;;;;3.95;0.50;;;19.60;99.90;;;;;;5003571;28;20061;-45
2022/07/04 07:42:13;;;;;;;4.35;0.60;;;19.70;99.90;;;;;;5001938;28;20041;-43
2022/07/04 07:44:39;;;;;;;3.70;0.55;;;19.80;99.90;;;;;;5001349;28;20157;-43
2022/07/04 07:47:06;;;;;;;4.05;0.80;;;19.90;99.90;;;;;;5003695;28;20092;-43
2022/07/04 07:49:31;;;;;;;3.20;0.50;;;19.90;99.90;;;;;;5000297;28;20356;-44
2022/07/04 07:51:57;;;;;;;4.05;0.40;;;20.00;99.90;;;;;;5003035;28;20045;-44
2022/07/04 07:54:23;;;;;;;3.38;0.47;;;20.10;99.90;;;;;;5029560;28;20054;-43
2022/07/04 07:56:48;;;;;;;3.53;0.40;;;20.20;99.90;;;;;;5002374;28;20041;-45
2022/07/04 07:59:14;;;;;;;3.90;0.60;;;20.30;99.90;;;;;;5000853;28;20046;-44
2022/07/04 08:01:39;;;;;;;4.40;0.60;;;20.30;99.90;;;;;;5018537;28;20045;-44
2022/07/04 08:06:49;;;;;;;5.10;0.40;;;20.40;99.90;;;;;;5001850;28;20050;-44
2022/07/04 08:09:15;;;;;;;5.40;0.60;;;20.50;99.90;;;;;;5000025;28;20795;-44
2022/07/04 08:11:41;;;;;;;4.95;0.60;;;20.50;99.90;;;;;;5032890;28;20520;-44
2022/07/04 08:14:07;;;;;;;4.43;0.50;;;20.50;99.90;;;;;;5037335;28;20056;-44
2022/07/04 08:16:33;;;;;;;4.05;0.50;;;20.60;99.90;;;;;;4998034;28;20050;-45
2022/07/04 08:19:00;;;;;;;4.78;0.38;;;20.60;99.90;;;;;;5001694;28;20054;-44
2022/07/04 08:21:26;;;;;;;4.38;0.65;;;20.60;99.90;;;;;;4999325;28;20038;-44
2022/07/04 08:23:52;;;;;;;4.35;0.55;;;20.60;99.90;;;;;;5003400;28;20045;-43
2022/07/04 08:26:18;;;;;;;4.82;0.40;;;20.60;99.90;;;;;;5001679;28;20056;-45
2022/07/04 08:28:44;;;;;;;3.67;0.50;;;20.60;99.90;;;;;;5004017;28;20083;-45
2022/07/04 08:31:09;;;;;;;4.10;0.40;;;20.70;99.90;;;;;;4999565;28;20054;-43
2022/07/04 08:33:35;;;;;;;3.53;0.50;;;20.70;99.90;;;;;;5002178;28;20041;-45
2022/07/04 08:36:01;;;;;;;2.90;0.32;;;20.70;99.90;;;;;;4998412;28;20502;-44
2022/07/04 08:38:27;;;;;;;2.10;0.40;;;20.70;99.90;;;;;;4997136;28;20045;-44
2022/07/04 08:40:57;;;;;;;4.20;0.50;;;20.70;99.90;;;;;;5003557;28;20042;-43
2022/07/04 08:43:24;;;;;;;2.72;0.40;;;20.70;99.90;;;;;;5014277;28;20070;-45
2022/07/04 08:45:53;;;;;;;3.88;0.70;;;20.70;99.90;;;;;;4998560;28;20120;-43
2022/07/04 08:48:26;;;;;;;4.35;0.80;;;20.70;99.90;;;;;;5000034;28;20033;-43
2022/07/04 08:50:57;;;;;;;5.32;0.82;;;20.70;99.90;;;;;;4998515;28;20412;-43
2022/07/04 08:53:27;;;;;;;2.17;0.50;;;20.70;99.90;;;;;;4998209;28;20041;-45
2022/07/04 08:58:38;;;;;;;3.70;0.60;;;20.70;99.90;;;;;;4996898;28;20130;-44
2022/07/04 09:01:07;;;;;;;4.43;0.52;;;20.80;99.90;;;;;;5030710;28;20057;-43
2022/07/04 09:03:34;;;;;;;4.25;0.50;;;20.80;99.90;;;;;;4998514;28;20498;-45
2022/07/04 09:06:00;;;;;;;4.95;0.73;;;20.80;99.90;;;;;;5030772;28;20496;-43
2022/07/04 09:08:26;;;;;;;3.42;0.47;;;20.80;99.90;;;;;;5001412;28;20056;-43
2022/07/04 09:10:53;;;;;;;3.35;0.60;;;20.80;99.90;;;;;;4996961;28;20034;-43
2022/07/04 09:13:19;;;;;;;2.70;0.30;;;20.90;99.90;;;;;;4997794;28;20041;-43
2022/07/04 09:15:48;;;;;;;2.85;0.73;;;20.90;99.90;;;;;;4996662;28;20107;-44
2022/07/04 09:18:32;;;;;;;3.17;0.50;;;20.90;99.90;;;;;;4997539;28;20100;-45
2022/07/04 09:21:03;;;;;;;2.67;0.40;;;21.00;99.90;;;;;;5013584;28;20041;-45
2022/07/04 09:23:49;;;;;;;4.70;0.50;;;21.00;99.90;;;;;;4998939;28;20254;-46
2022/07/04 09:26:16;;;;;;;3.78;0.57;;;21.00;99.90;;;;;;4998942;28;20033;-43
2022/07/04 09:28:52;;;;;;;3.42;0.60;;;20.90;99.90;;;;;;5032028;28;20106;-43
2022/07/04 09:31:29;;;;;;;2.97;0.50;;;21.00;99.90;;;;;;5002362;28;20316;-45
2022/07/04 09:34:00;;;;;;;2.47;0.50;;;20.90;99.90;;;;;;5010973;28;20058;-46
2022/07/04 09:36:28;;;;;;;2.42;0.30;;;20.90;99.90;;;;;;4999573;28;20038;-44
2022/07/04 09:39:14;;;;;;;2.10;0.30;;;21.00;99.90;;;;;;4996394;28;20041;-45
2022/07/04 09:42:01;;;;;;;3.22;0.30;;;21.00;99.90;;;;;;4997989;28;20289;-44
2022/07/04 09:44:34;;;;;;;3.05;0.30;;;21.00;99.90;;;;;;4996812;28;20042;-43
2022/07/04 09:47:18;;;;;;;;;;;21.00;99.90;;;;;;4998773;28;20211;-44
2022/07/04 09:49:57;;;;;;;;;;;21.00;99.90;;;;;;4998209;28;19975;-44
2022/07/04 09:52:23;;;;;;;2.97;0.30;;;21.00;99.90;;;;;;5031966;28;19924;-44
2022/07/04 09:54:49;;;;;;;1.92;0.30;;;21.00;99.90;;;;;;5015950;28;20274;-43
2022/07/04 09:57:22;;;;;;;1.48;0.20;;;21.10;99.90;;;;;;5019470;28;20258;-44
2022/07/04 09:59:47;;;;;;;1.98;0.50;;;21.20;99.90;;;;;;4997600;28;20177;-44
2022/07/04 10:02:14;;;;;;;1.17;0.20;;;21.20;99.90;;;;;;4998357;28;20041;-45
2022/07/04 10:04:51;;;;;;;1.58;0.30;;;21.30;99.90;;;;;;5000138;28;20537;-43
2022/07/04 10:07:40;;;;;;;1.10;0.20;;;21.40;99.90;;;;;;4998302;28;20042;-46
2022/07/04 10:10:33;;;;;;;2.35;0.20;;;21.50;99.90;;;;;;4998730;28;20064;-46
2022/07/04 10:13:10;;;;;;;0.93;0.10;;;21.50;99.90;;;;;;5022878;28;20046;-45
2022/07/04 10:15:38;;;;;;;1.35;0.30;;;21.60;99.90;;;;;;5031161;28;20130;-43
2022/07/04 10:18:06;;;;;;;1.08;0.20;;;21.70;99.90;;;;;;4999707;28;20514;-44
2022/07/04 10:20:32;;;;;;;1.42;0.20;;;21.70;99.90;;;;;;4996359;28;20476;-44
2022/07/04 10:22:58;;;;;;;3.08;0.20;;;21.80;99.90;;;;;;5030301;28;20065;-44
2022/07/04 10:25:24;;;;;;;2.58;0.30;;;21.90;99.90;;;;;;5032269;28;20720;-43
2022/07/04 10:27:51;;;;;;;2.03;0.13;;;22.00;99.90;;;;;;5017317;28;20292;-44
2022/07/04 10:30:32;;;;;;;1.42;0.10;;;22.10;99.90;;;;;;5030432;28;20057;-43
2022/07/04 10:33:01;;;;;;;1.40;0.17;;;22.20;99.90;;;;;;4997256;28;20423;-43
2022/07/04 10:35:46;;;;;;;1.17;0.10;;;22.30;99.90;;;;;;4998382;28;20049;-44
2022/07/04 10:38:12;;;;;;;2.22;0.20;;;22.40;99.90;;;;;;5016302;28;20046;-44
2022/07/04 10:40:42;;;;;;;1.27;0.20;;;22.40;99.90;;;;;;4998213;28;20130;-44
2022/07/04 10:43:42;;;;;;;2.75;0.20;;;22.50;99.90;;;;;;5032028;28;20045;-43
2022/07/04 10:46:14;;;;;;;1.52;0.20;;;22.60;99.90;;;;;;5000316;28;20115;-43
2022/07/04 10:49:12;;;;;;;1.43;0.23;;;22.70;99.90;;;;;;4998694;28;20127;-44
2022/07/04 10:51:45;;;;;;;2.22;0.20;;;22.80;99.90;;;;;;4999458;28;20563;-43
2022/07/04 10:54:20;;;;;;;2.40;0.25;;;22.80;99.90;;;;;;4999166;28;20057;-44
2022/07/04 10:56:55;;;;;;;2.53;0.20;;;22.80;99.90;;;;;;5001277;28;20072;-44
2022/07/04 10:59:27;;;;;;;1.67;0.20;;;22.90;99.90;;;;;;4999678;28;20038;-44
2022/07/04 11:02:08;;;;;;;1.20;0.20;;;23.00;99.90;;;;;;5000821;28;20045;-44
2022/07/04 11:05:00;;;;;;;1.25;0.17;;;23.00;99.90;;;;;;5001372;28;20095;-47
2022/07/04 11:07:39;;;;;;;1.45;0.20;;;23.10;99.90;;;;;;5003546;28;20137;-43
2022/07/04 11:10:11;;;;;;;1.77;0.25;;;23.10;99.90;;;;;;5002870;28;20046;-44
2022/07/04 11:12:55;;;;;;;1.58;0.25;;;23.20;99.90;;;;;;5003430;28;20737;-44
2022/07/04 11:15:32;;;;;;;1.73;0.20;;;23.30;99.90;;;;;;5006440;28;20053;-45
2022/07/04 11:18:03;;;;;;;1.92;0.20;;;23.40;99.90;;;;;;5003420;28;20653;-45
2022/07/04 11:20:32;;;;;;;1.55;0.20;;;23.40;99.90;;;;;;5003132;28;20561;-45
2022/07/04 11:23:15;;;;;;;1.17;0.20;;;23.50;99.90;;;;;;5004984;28;20756;-44
2022/07/04 11:25:45;;;;;;;2.75;0.30;;;23.50;99.90;;;;;;5002738;28;20042;-44
2022/07/04 11:28:23;;;;;;;1.17;0.20;;;23.60;99.90;;;;;;5003511;28;20129;-46
2022/07/04 11:30:53;;;;;;;2.28;0.20;;;23.70;99.90;;;;;;5001114;28;20135;-46
2022/07/04 11:33:24;;;;;;;2.65;0.20;;;23.70;99.90;;;;;;5002294;28;20043;-46
2022/07/04 11:36:15;;;;;;;2.58;0.30;;;23.80;99.90;;;;;;5000201;28;20045;-45
2022/07/04 11:39:01;;;;;;;2.25;0.20;;;23.90;99.90;;;;;;4999627;28;20119;-44
2022/07/04 11:47:32;;;;;;;1.10;0.20;;;24.20;99.90;;;;;;4998323;28;20061;-44
2022/07/04 11:49:59;;;;;;;1.55;0.20;;;24.30;99.90;;;;;;5000100;28;20117;-44
2022/07/04 11:52:26;;;;;;;2.38;0.20;;;24.30;99.90;;;;;;5000075;28;20041;-47
2022/07/04 11:54:52;;;;;;;1.60;0.20;;;24.40;99.90;;;;;;5012151;28;20053;-45
2022/07/04 11:57:27;;;;;;;2.95;0.17;;;24.50;99.90;;;;;;5030846;28;20054;-44
2022/07/04 12:00:02;;;;;;;0.55;0.10;;;24.50;99.90;;;;;;5016278;28;20480;-44
2022/07/04 12:02:32;;;;;;;1.88;0.10;;;24.60;99.90;;;;;;5000972;28;20384;-45
2022/07/04 12:04:59;;;;;;;2.22;0.20;;;24.60;99.90;;;;;;5001557;28;20046;-45
2022/07/04 12:07:34;;;;;;;1.77;0.20;;;24.70;99.90;;;;;;4999561;28;20044;-44
2022/07/04 12:10:14;;;;;;;2.35;0.28;;;24.70;99.90;;;;;;4998776;28;20435;-44
2022/07/04 12:12:52;;;;;;;3.15;0.17;;;24.80;99.90;;;;;;5000857;28;20578;-44
2022/07/04 12:15:19;;;;;;;2.88;0.20;;;24.90;99.90;;;;;;4999221;28;20411;-44
2022/07/04 12:17:44;;;;;;;1.15;0.20;;;24.80;99.90;;;;;;5001584;28;20076;-44
2022/07/04 12:20:17;;;;;;;1.30;0.20;;;24.90;99.90;;;;;;5000628;28;20041;-45
2022/07/04 12:22:44;;;;;;;;;;;25.00;99.90;;;;;;5038290;28;21132;-44
2022/07/04 12:25:22;;;;;;;2.00;0.20;;;25.00;99.90;;;;;;5035096;28;19932;-45
2022/07/04 12:27:59;;;;;;;2.08;0.20;;;25.00;99.90;;;;;;4999727;28;20041;-44
2022/07/04 12:30:27;;;;;;;1.60;0.20;;;25.00;99.90;;;;;;4996786;28;20042;-44
2022/07/04 12:32:57;;;;;;;1.48;0.10;;;25.10;99.90;;;;;;4999235;28;20041;-44
2022/07/04 12:35:50;;;;;;;2.03;0.20;;;25.10;99.90;;;;;;4997863;28;20046;-44
2022/07/04 12:38:21;;;;;;;2.50;0.20;;;25.20;99.90;;;;;;4998668;28;20080;-45
2022/07/04 12:41:10;;;;;;;1.20;0.10;;;25.20;99.90;;;;;;4996713;28;20052;-43
2022/07/04 12:43:42;;;;;;;1.60;0.20;;;25.20;99.90;;;;;;4998790;28;20594;-44
2022/07/04 12:46:24;;;;;;;1.05;0.20;;;25.30;98.90;;;;;;5021725;28;20046;-44
2022/07/04 12:48:54;;;;;;;1.88;0.20;;;25.30;98.30;;;;;;5001863;28;20052;-44
2022/07/04 12:51:35;;;;;;;1.67;0.10;;;25.40;97.30;;;;;;5033150;28;20207;-44
2022/07/04 12:54:09;;;;;;;1.17;0.20;;;25.50;96.10;;;;;;4998915;28;20542;-44
2022/07/04 12:56:38;;;;;;;1.33;0.10;;;25.50;94.70;;;;;;4997199;28;20550;-44
2022/07/04 12:59:06;;;;;;;2.50;0.10;;;25.60;93.30;;;;;;4996755;28;20188;-44
2022/07/04 13:01:32;;;;;;;0.60;0.10;;;25.60;93.20;;;;;;4985091;28;20042;-44
2022/07/04 13:04:00;;;;;;;0.98;0.10;;;25.70;93.20;;;;;;4997746;28;20140;-44
2022/07/04 13:06:26;;;;;;;0.85;0.20;;;25.70;92.40;;;;;;5029944;28;20203;-43
2022/07/04 13:08:52;;;;;;;1.60;0.20;;;25.70;91.70;;;;;;5008770;28;20252;-45
2022/07/04 13:14:03;;;;;;;0.77;0.10;;;25.80;91.20;;;;;;4996958;28;20136;-44
2022/07/04 13:16:29;;;;;;;3.55;0.13;;;25.90;91.10;;;;;;4997895;28;20524;-44